sensor_id;sensor_type;location;lat;lon;timestamp;temperature;humidity
75517;DHT22;64097;52.548;13.406;2023-09-19T06:01:57;23.10;56.30
75517;DHT22;64097;52.548;13.406;2023-09-19T06:04:23;23.10;56.20
75517;DHT22;64097;52.548;13.406;2023-09-19T06:06:49;23.10;56.10
75517;DHT22;64097;52.548;13.406;2023-09-19T06:09:16;23.10;56.20
75517;DHT22;64097;52.548;13.406;2023-09-19T06:11:43;23.10;56.20
75517;DHT22;64097;52.548;13.406;2023-09-19T06:14:08;23.10;56.10
75517;DHT22;64097;52.548;13.406;2023-09-19T06:16:35;23.10;56.20
75517;DHT22;64097;52.548;13.406;2023-09-19T06:19:02;23.10;56.10
75517;DHT22;64097;52.548;13.406;2023-09-19T06:21:28;23.10;56.10
75517;DHT22;64097;52.548;13.406;2023-09-19T06:23:53;23.20;56.10
75517;DHT22;64097;52.548;13.406;2023-09-19T06:26:19;23.10;56.00
75517;DHT22;64097;52.548;13.406;2023-09-19T06:28:45;23.10;55.90
75517;DHT22;64097;52.548;13.406;2023-09-19T06:31:11;23.20;55.90
75517;DHT22;64097;52.548;13.406;2023-09-19T06:33:38;23.20;55.90
75517;DHT22;64097;52.548;13.406;2023-09-19T06:36:08;23.20;55.80
75517;DHT22;64097;52.548;13.406;2023-09-19T06:38:34;23.20;55.70
75517;DHT22;64097;52.548;13.406;2023-09-19T06:41:02;23.20;55.60
75517;DHT22;64097;52.548;13.406;2023-09-19T06:43:31;23.30;55.70
75517;DHT22;64097;52.548;13.406;2023-09-19T06:45:57;23.30;55.70
75517;DHT22;64097;52.548;13.406;2023-09-19T06:48:23;23.30;55.60
75517;DHT22;64097;52.548;13.406;2023-09-19T06:50:57;23.30;55.50
75517;DHT22;64097;52.548;13.406;2023-09-19T06:53:27;23.40;55.40
75517;DHT22;64097;52.548;13.406;2023-09-19T06:55:57;23.40;55.40
75517;DHT22;64097;52.548;13.406;2023-09-19T06:58:23;23.50;55.40
75517;DHT22;64097;52.548;13.406;2023-09-19T07:00:49;23.50;55.30
75517;DHT22;64097;52.548;13.406;2023-09-19T07:03:16;23.60;55.30
75517;DHT22;64097;52.548;13.406;2023-09-19T07:05:44;23.60;55.20
75517;DHT22;64097;52.548;13.406;2023-09-19T07:08:10;23.70;55.20
75517;DHT22;64097;52.548;13.406;2023-09-19T07:10:38;23.70;55.00
75517;DHT22;64097;52.548;13.406;2023-09-19T07:13:07;23.80;55.00
75517;DHT22;64097;52.548;13.406;2023-09-19T07:15:37;23.90;55.00
75517;DHT22;64097;52.548;13.406;2023-09-19T07:18:12;23.90;54.90
75517;DHT22;64097;52.548;13.406;2023-09-19T07:20:38;24.00;54.70
75517;DHT22;64097;52.548;13.406;2023-09-19T07:23:04;24.00;54.40
75517;DHT22;64097;52.548;13.406;2023-09-19T07:25:30;24.10;54.10
75517;DHT22;64097;52.548;13.406;2023-09-19T07:27:59;24.20;54.10
75517;DHT22;64097;52.548;13.406;2023-09-19T07:30:26;24.20;53.90
75517;DHT22;64097;52.548;13.406;2023-09-19T07:32:52;24.20;53.60
75517;DHT22;64097;52.548;13.406;2023-09-19T07:35:18;24.20;53.30
75517;DHT22;64097;52.548;13.406;2023-09-19T07:37:48;24.30;53.20
75517;DHT22;64097;52.548;13.406;2023-09-19T07:40:15;24.30;53.30
75517;DHT22;64097;52.548;13.406;2023-09-19T07:42:41;24.30;53.10
75517;DHT22;64097;52.548;13.406;2023-09-19T07:45:08;24.30;52.60
75517;DHT22;64097;52.548;13.406;2023-09-19T07:47:34;24.30;52.20
75517;DHT22;64097;52.548;13.406;2023-09-19T07:50:01;24.30;52.50
75517;DHT22;64097;52.548;13.406;2023-09-19T07:52:28;24.30;52.40
75517;DHT22;64097;52.548;13.406;2023-09-19T07:54:54;24.30;52.40
75517;DHT22;64097;52.548;13.406;2023-09-19T07:57:23;24.30;52.50
75517;DHT22;64097;52.548;13.406;2023-09-19T07:59:48;24.30;52.40
75517;DHT22;64097;52.548;13.406;2023-09-19T08:02:14;24.30;52.40
75517;DHT22;64097;52.548;13.406;2023-09-19T08:04:44;24.40;52.00
75517;DHT22;64097;52.548;13.406;2023-09-19T08:07:12;24.40;51.90
75517;DHT22;64097;52.548;13.406;2023-09-19T08:09:38;24.40;51.60
75517;DHT22;64097;52.548;13.406;2023-09-19T08:12:06;24.40;51.20
75517;DHT22;64097;52.548;13.406;2023-09-19T08:14:33;24.50;50.90
75517;DHT22;64097;52.548;13.406;2023-09-19T08:16:59;24.50;50.50
75517;DHT22;64097;52.548;13.406;2023-09-19T08:19:26;24.50;50.40
75517;DHT22;64097;52.548;13.406;2023-09-19T08:21:57;24.50;50.10
75517;DHT22;64097;52.548;13.406;2023-09-19T08:24:30;24.50;50.00
75517;DHT22;64097;52.548;13.406;2023-09-19T08:26:57;24.50;50.00
75517;DHT22;64097;52.548;13.406;2023-09-19T08:29:25;24.50;49.80
75517;DHT22;64097;52.548;13.406;2023-09-19T08:31:56;24.50;49.80
75517;DHT22;64097;52.548;13.406;2023-09-19T08:34:23;24.50;49.90
75517;DHT22;64097;52.548;13.406;2023-09-19T08:36:54;24.50;50.00
75517;DHT22;64097;52.548;13.406;2023-09-19T08:39:23;24.50;49.90
75517;DHT22;64097;52.548;13.406;2023-09-19T08:41:49;24.50;49.90
75517;DHT22;64097;52.548;13.406;2023-09-19T08:44:15;24.40;49.80
75517;DHT22;64097;52.548;13.406;2023-09-19T08:46:42;24.40;49.90
75517;DHT22;64097;52.548;13.406;2023-09-19T08:49:26;24.40;49.80
75517;DHT22;64097;52.548;13.406;2023-09-19T08:54:32;24.40;49.70
75517;DHT22;64097;52.548;13.406;2023-09-19T08:57:02;24.40;49.70
75517;DHT22;64097;52.548;13.406;2023-09-19T08:59:30;24.40;49.40
75517;DHT22;64097;52.548;13.406;2023-09-19T09:01:57;24.40;49.40
75517;DHT22;64097;52.548;13.406;2023-09-19T09:04:23;24.40;49.60
75517;DHT22;64097;52.548;13.406;2023-09-19T09:06:51;24.30;49.40
75517;DHT22;64097;52.548;13.406;2023-09-19T09:09:20;24.40;49.30
75517;DHT22;64097;52.548;13.406;2023-09-19T09:11:48;24.40;49.00
75517;DHT22;64097;52.548;13.406;2023-09-19T09:14:17;24.40;49.40
75517;DHT22;64097;52.548;13.406;2023-09-19T09:16:42;24.40;49.10
75517;DHT22;64097;52.548;13.406;2023-09-19T09:19:08;24.40;49.80
75517;DHT22;64097;52.548;13.406;2023-09-19T09:21:34;24.40;49.00
75517;DHT22;64097;52.548;13.406;2023-09-19T09:24:27;24.50;48.60
75517;DHT22;64097;52.548;13.406;2023-09-19T09:26:54;24.50;48.80
75517;DHT22;64097;52.548;13.406;2023-09-19T09:29:41;24.50;48.70
75517;DHT22;64097;52.548;13.406;2023-09-19T09:32:26;24.50;48.50
75517;DHT22;64097;52.548;13.406;2023-09-19T09:34:58;24.60;48.50
75517;DHT22;64097;52.548;13.406;2023-09-19T09:37:25;24.70;48.20
75517;DHT22;64097;52.548;13.406;2023-09-19T09:39:53;24.70;48.50
75517;DHT22;64097;52.548;13.406;2023-09-19T09:42:38;24.80;48.20
75517;DHT22;64097;52.548;13.406;2023-09-19T09:45:17;24.80;47.90
75517;DHT22;64097;52.548;13.406;2023-09-19T09:47:48;24.80;47.70
75517;DHT22;64097;52.548;13.406;2023-09-19T09:50:23;24.90;47.60
75517;DHT22;64097;52.548;13.406;2023-09-19T09:52:54;24.90;47.50
75517;DHT22;64097;52.548;13.406;2023-09-19T09:55:26;24.90;47.50
75517;DHT22;64097;52.548;13.406;2023-09-19T09:58:16;25.00;46.90
75517;DHT22;64097;52.548;13.406;2023-09-19T10:00:53;25.00;46.40
75517;DHT22;64097;52.548;13.406;2023-09-19T10:03:36;24.90;46.40
75517;DHT22;64097;52.548;13.406;2023-09-19T10:06:11;25.00;46.00
75517;DHT22;64097;52.548;13.406;2023-09-19T10:09:03;24.90;45.80
75517;DHT22;64097;52.548;13.406;2023-09-19T10:12:10;24.90;46.10
75517;DHT22;64097;52.548;13.406;2023-09-19T10:14:38;25.00;45.60
75517;DHT22;64097;52.548;13.406;2023-09-19T10:17:10;25.00;45.50
75517;DHT22;64097;52.548;13.406;2023-09-19T10:19:54;24.90;45.20
75517;DHT22;64097;52.548;13.406;2023-09-19T10:22:23;25.00;45.20
75517;DHT22;64097;52.548;13.406;2023-09-19T10:24:50;25.00;45.60
75517;DHT22;64097;52.548;13.406;2023-09-19T10:27:18;25.00;44.80
75517;DHT22;64097;52.548;13.406;2023-09-19T10:29:48;25.10;44.80
75517;DHT22;64097;52.548;13.406;2023-09-19T10:32:16;25.00;44.60
75517;DHT22;64097;52.548;13.406;2023-09-19T10:34:46;25.10;44.60
75517;DHT22;64097;52.548;13.406;2023-09-19T10:37:13;25.10;44.40
75517;DHT22;64097;52.548;13.406;2023-09-19T10:39:46;25.10;44.10
75517;DHT22;64097;52.548;13.406;2023-09-19T10:42:14;25.20;44.20
75517;DHT22;64097;52.548;13.406;2023-09-19T10:44:42;25.20;44.30
75517;DHT22;64097;52.548;13.406;2023-09-19T10:47:10;25.30;43.80
75517;DHT22;64097;52.548;13.406;2023-09-19T10:49:44;25.30;43.50
75517;DHT22;64097;52.548;13.406;2023-09-19T10:52:12;25.30;43.30
75517;DHT22;64097;52.548;13.406;2023-09-19T10:54:46;25.30;43.10
75517;DHT22;64097;52.548;13.406;2023-09-19T10:57:22;25.30;43.00
75517;DHT22;64097;52.548;13.406;2023-09-19T11:00:08;25.30;43.10
75517;DHT22;64097;52.548;13.406;2023-09-19T11:03:25;25.20;42.70
75517;DHT22;64097;52.548;13.406;2023-09-19T11:06:05;25.20;42.70
75517;DHT22;64097;52.548;13.406;2023-09-19T11:08:56;25.20;42.10
75517;DHT22;64097;52.548;13.406;2023-09-19T11:11:46;25.20;42.20
75517;DHT22;64097;52.548;13.406;2023-09-19T11:30:38;25.30;41.70
75517;DHT22;64097;52.548;13.406;2023-09-19T11:36:07;25.30;41.40
75517;DHT22;64097;52.548;13.406;2023-09-19T11:46:17;25.50;41.00
75517;DHT22;64097;52.548;13.406;2023-09-19T11:48:49;25.50;41.10
75517;DHT22;64097;52.548;13.406;2023-09-19T11:51:17;25.50;40.90
75517;DHT22;64097;52.548;13.406;2023-09-19T11:53:56;25.50;40.70
75517;DHT22;64097;52.548;13.406;2023-09-19T11:56:25;25.50;40.70
75517;DHT22;64097;52.548;13.406;2023-09-19T11:58:57;25.60;40.30
75517;DHT22;64097;52.548;13.406;2023-09-19T12:03:56;25.60;40.00
75517;DHT22;64097;52.548;13.406;2023-09-19T12:06:24;25.60;40.40
75517;DHT22;64097;52.548;13.406;2023-09-19T12:08:50;25.60;40.40
75517;DHT22;64097;52.548;13.406;2023-09-19T12:11:16;25.60;40.40
75517;DHT22;64097;52.548;13.406;2023-09-19T12:13:44;25.60;39.80
75517;DHT22;64097;52.548;13.406;2023-09-19T12:16:16;25.60;40.00
75517;DHT22;64097;52.548;13.406;2023-09-19T12:18:44;25.70;40.10
75517;DHT22;64097;52.548;13.406;2023-09-19T12:21:27;25.60;40.20
75517;DHT22;64097;52.548;13.406;2023-09-19T12:24:12;25.70;40.10
75517;DHT22;64097;52.548;13.406;2023-09-19T12:26:45;25.70;39.70
75517;DHT22;64097;52.548;13.406;2023-09-19T12:29:18;25.70;39.40
75517;DHT22;64097;52.548;13.406;2023-09-19T12:32:02;25.70;39.10
75517;DHT22;64097;52.548;13.406;2023-09-19T12:34:30;25.70;38.80
75517;DHT22;64097;52.548;13.406;2023-09-19T12:37:12;25.80;38.50
75517;DHT22;64097;52.548;13.406;2023-09-19T12:39:42;25.80;38.50
75517;DHT22;64097;52.548;13.406;2023-09-19T12:42:12;25.80;38.50
75517;DHT22;64097;52.548;13.406;2023-09-19T12:44:44;25.80;38.30
75517;DHT22;64097;52.548;13.406;2023-09-19T12:47:15;25.80;38.50
75517;DHT22;64097;52.548;13.406;2023-09-19T12:50:13;25.80;38.50
75517;DHT22;64097;52.548;13.406;2023-09-19T12:52:52;25.80;37.60
75517;DHT22;64097;52.548;13.406;2023-09-19T12:55:29;25.80;38.00
75517;DHT22;64097;52.548;13.406;2023-09-19T13:05:58;25.90;38.20
75517;DHT22;64097;52.548;13.406;2023-09-19T13:08:38;25.90;38.20
75517;DHT22;64097;52.548;13.406;2023-09-19T13:11:10;25.90;38.10
75517;DHT22;64097;52.548;13.406;2023-09-19T13:13:46;26.00;38.10
75517;DHT22;64097;52.548;13.406;2023-09-19T13:16:19;26.00;38.30
75517;DHT22;64097;52.548;13.406;2023-09-19T13:18:51;26.00;38.10
75517;DHT22;64097;52.548;13.406;2023-09-19T13:21:27;26.00;37.80
75517;DHT22;64097;52.548;13.406;2023-09-19T13:23:55;26.00;37.90
75517;DHT22;64097;52.548;13.406;2023-09-19T13:26:28;26.00;37.90
75517;DHT22;64097;52.548;13.406;2023-09-19T13:28:54;26.00;37.50
75517;DHT22;64097;52.548;13.406;2023-09-19T13:31:20;26.00;38.30
75517;DHT22;64097;52.548;13.406;2023-09-19T13:33:48;26.00;37.30
75517;DHT22;64097;52.548;13.406;2023-09-19T13:36:15;26.00;36.90
75517;DHT22;64097;52.548;13.406;2023-09-19T13:38:43;26.00;37.40
75517;DHT22;64097;52.548;13.406;2023-09-19T13:41:10;26.00;37.20
75517;DHT22;64097;52.548;13.406;2023-09-19T13:43:37;26.00;37.50
75517;DHT22;64097;52.548;13.406;2023-09-19T13:46:04;26.00;37.50
75517;DHT22;64097;52.548;13.406;2023-09-19T13:48:30;26.00;37.40
75517;DHT22;64097;52.548;13.406;2023-09-19T13:50:56;26.00;37.60
75517;DHT22;64097;52.548;13.406;2023-09-19T13:53:22;26.00;37.70
75517;DHT22;64097;52.548;13.406;2023-09-19T13:55:49;26.00;37.40
75517;DHT22;64097;52.548;13.406;2023-09-19T13:58:15;26.00;37.30
